sensor_id;sensor_type;location;lat;lon;timestamp;pressure;altitude;pressure_sealevel;temperature;humidity
21111;BME280;10713;51.912;4.494;2022-10-30T00:01:52;101588.22;;;18.16;100.00
21111;BME280;10713;51.912;4.494;2022-10-30T00:04:17;101590.03;;;18.15;100.00
21111;BME280;10713;51.912;4.494;2022-10-30T00:06:42;101579.72;;;18.09;100.00
21111;BME280;10713;51.912;4.494;2022-10-30T00:09:08;101581.03;;;18.46;100.00
21111;BME280;10713;51.912;4.494;2022-10-30T00:11:34;101573.63;;;18.52;100.00
21111;BME280;10713;51.912;4.494;2022-10-30T00:13:59;101583.34;;;18.53;100.00
21111;BME280;10713;51.912;4.494;2022-10-30T00:16:24;101576.06;;;18.40;100.00
21111;BME280;10713;51.912;4.494;2022-10-30T00:18:50;101575.50;;;18.35;100.00
21111;BME280;10713;51.912;4.494;2022-10-30T00:21:16;101583.41;;;18.37;100.00
21111;BME280;10713;51.912;4.494;2022-10-30T00:23:49;101596.59;;;18.10;100.00
21111;BME280;10713;51.912;4.494;2022-10-30T00:26:15;101586.47;;;18.00;100.00
21111;BME280;10713;51.912;4.494;2022-10-30T00:28:40;101586.06;;;17.92;100.00
21111;BME280;10713;51.912;4.494;2022-10-30T00:31:06;101590.78;;;17.87;100.00
21111;BME280;10713;51.912;4.494;2022-10-30T00:33:32;101589.34;;;17.82;100.00
21111;BME280;10713;51.912;4.494;2022-10-30T00:35:58;101591.16;;;17.81;100.00
21111;BME280;10713;51.912;4.494;2022-10-30T00:38:24;101586.91;;;17.93;100.00
21111;BME280;10713;51.912;4.494;2022-10-30T00:40:50;101587.78;;;17.77;100.00
21111;BME280;10713;51.912;4.494;2022-10-30T00:43:44;101594.00;;;17.78;100.00
21111;BME280;10713;51.912;4.494;2022-10-30T00:48:49;101592.78;;;17.84;100.00
21111;BME280;10713;51.912;4.494;2022-10-30T00:51:15;101590.69;;;17.73;100.00
21111;BME280;10713;51.912;4.494;2022-10-30T00:53:41;101586.00;;;17.78;100.00
21111;BME280;10713;51.912;4.494;2022-10-30T00:56:09;101593.38;;;17.73;100.00
21111;BME280;10713;51.912;4.494;2022-10-30T00:58:40;101596.28;;;17.68;100.00
21111;BME280;10713;51.912;4.494;2022-10-30T01:01:15;101600.53;;;17.72;100.00
21111;BME280;10713;51.912;4.494;2022-10-30T01:03:42;101597.34;;;17.82;100.00
21111;BME280;10713;51.912;4.494;2022-10-30T01:06:09;101602.50;;;17.69;100.00
21111;BME280;10713;51.912;4.494;2022-10-30T01:08:36;101597.84;;;17.56;100.00
21111;BME280;10713;51.912;4.494;2022-10-30T01:11:03;101602.50;;;17.53;100.00
21111;BME280;10713;51.912;4.494;2022-10-30T01:13:31;101610.34;;;17.56;100.00
21111;BME280;10713;51.912;4.494;2022-10-30T01:29:20;101606.88;;;17.54;100.00
21111;BME280;10713;51.912;4.494;2022-10-30T01:34:58;101607.66;;;17.56;100.00
21111;BME280;10713;51.912;4.494;2022-10-30T01:39:54;101613.88;;;17.56;100.00
21111;BME280;10713;51.912;4.494;2022-10-30T01:42:47;101617.66;;;17.52;100.00
21111;BME280;10713;51.912;4.494;2022-10-30T01:50:25;101612.50;;;17.49;100.00
21111;BME280;10713;51.912;4.494;2022-10-30T01:55:32;101615.97;;;17.51;100.00
21111;BME280;10713;51.912;4.494;2022-10-30T01:58:21;101607.66;;;17.56;100.00
21111;BME280;10713;51.912;4.494;2022-10-30T02:00:52;101617.66;;;17.52;100.00
21111;BME280;10713;51.912;4.494;2022-10-30T02:03:19;101609.56;;;17.54;100.00
21111;BME280;10713;51.912;4.494;2022-10-30T02:05:50;101620.75;;;17.76;100.00
21111;BME280;10713;51.912;4.494;2022-10-30T02:08:16;101602.50;;;17.53;100.00
21111;BME280;10713;51.912;4.494;2022-10-30T02:10:43;101616.28;;;17.61;100.00
21111;BME280;10713;51.912;4.494;2022-10-30T02:13:10;101612.75;;;17.45;100.00
21111;BME280;10713;51.912;4.494;2022-10-30T02:15:36;101611.72;;;17.47;100.00
21111;BME280;10713;51.912;4.494;2022-10-30T02:18:02;101609.84;;;17.49;100.00
21111;BME280;10713;51.912;4.494;2022-10-30T02:20:28;101614.06;;;17.38;100.00
21111;BME280;10713;51.912;4.494;2022-10-30T02:22:53;101609.31;;;17.74;100.00
21111;BME280;10713;51.912;4.494;2022-10-30T02:25:19;101616.91;;;17.82;100.00
21111;BME280;10713;51.912;4.494;2022-10-30T02:27:44;101616.03;;;17.82;100.00
21111;BME280;10713;51.912;4.494;2022-10-30T02:30:10;101626.72;;;17.82;100.00
21111;BME280;10713;51.912;4.494;2022-10-30T02:32:36;101627.81;;;17.77;100.00
21111;BME280;10713;51.912;4.494;2022-10-30T02:35:02;101629.03;;;17.72;100.00
21111;BME280;10713;51.912;4.494;2022-10-30T02:37:27;101638.31;;;17.65;100.00
21111;BME280;10713;51.912;4.494;2022-10-30T02:39:53;101626.38;;;17.72;100.00
21111;BME280;10713;51.912;4.494;2022-10-30T02:42:18;101627.75;;;17.79;100.00
21111;BME280;10713;51.912;4.494;2022-10-30T02:44:43;101625.16;;;17.46;100.00
21111;BME280;10713;51.912;4.494;2022-10-30T02:47:09;101639.22;;;17.16;100.00
21111;BME280;10713;51.912;4.494;2022-10-30T02:49:34;101637.59;;;17.14;100.00
21111;BME280;10713;51.912;4.494;2022-10-30T02:52:00;101635.25;;;17.07;100.00
21111;BME280;10713;51.912;4.494;2022-10-30T02:54:25;101639.03;;;17.03;100.00
21111;BME280;10713;51.912;4.494;2022-10-30T02:56:50;101633.78;;;17.02;100.00
21111;BME280;10713;51.912;4.494;2022-10-30T02:59:16;101634.91;;;16.98;100.00
21111;BME280;10713;51.912;4.494;2022-10-30T03:01:41;101643.91;;;16.95;100.00
21111;BME280;10713;51.912;4.494;2022-10-30T03:04:07;101640.31;;;16.96;100.00
21111;BME280;10713;51.912;4.494;2022-10-30T03:06:32;101640.31;;;16.96;100.00
21111;BME280;10713;51.912;4.494;2022-10-30T03:08:57;101631.09;;;16.86;100.00
21111;BME280;10713;51.912;4.494;2022-10-30T03:11:23;101627.31;;;16.73;100.00
21111;BME280;10713;51.912;4.494;2022-10-30T03:13:48;101627.53;;;16.68;100.00
21111;BME280;10713;51.912;4.494;2022-10-30T03:16:16;101619.53;;;16.68;100.00
21111;BME280;10713;51.912;4.494;2022-10-30T03:18:42;101616.09;;;16.66;100.00
21111;BME280;10713;51.912;4.494;2022-10-30T03:21:10;101616.09;;;16.66;100.00
21111;BME280;10713;51.912;4.494;2022-10-30T03:23:36;101617.03;;;16.65;100.00
21111;BME280;10713;51.912;4.494;2022-10-30T03:26:02;101619.69;;;16.65;100.00
21111;BME280;10713;51.912;4.494;2022-10-30T03:28:29;101632.09;;;16.66;100.00
21111;BME280;10713;51.912;4.494;2022-10-30T03:31:00;101630.97;;;16.70;100.00
21111;BME280;10713;51.912;4.494;2022-10-30T03:33:25;101622.88;;;17.06;100.00
21111;BME280;10713;51.912;4.494;2022-10-30T03:35:50;101614.94;;;17.05;100.00
21111;BME280;10713;51.912;4.494;2022-10-30T03:38:16;101616.84;;;17.03;100.00
21111;BME280;10713;51.912;4.494;2022-10-30T03:40:41;101618.31;;;17.08;100.00
21111;BME280;10713;51.912;4.494;2022-10-30T03:43:07;101617.81;;;17.18;100.00
21111;BME280;10713;51.912;4.494;2022-10-30T03:45:33;101621.28;;;17.20;100.00
21111;BME280;10713;51.912;4.494;2022-10-30T03:48:00;101633.16;;;17.30;100.00
21111;BME280;10713;51.912;4.494;2022-10-30T03:50:25;101627.75;;;17.31;100.00
21111;BME280;10713;51.912;4.494;2022-10-30T03:52:52;101625.38;;;17.25;100.00
21111;BME280;10713;51.912;4.494;2022-10-30T03:55:18;101631.00;;;17.21;100.00
21111;BME280;10713;51.912;4.494;2022-10-30T03:57:43;101632.81;;;17.20;100.00
21111;BME280;10713;51.912;4.494;2022-10-30T04:00:09;101629.59;;;17.14;100.00
21111;BME280;10713;51.912;4.494;2022-10-30T04:02:35;101636.38;;;17.03;100.00
21111;BME280;10713;51.912;4.494;2022-10-30T04:05:00;101629.47;;;16.99;100.00
21111;BME280;10713;51.912;4.494;2022-10-30T04:07:25;101637.72;;;16.95;100.00
21111;BME280;10713;51.912;4.494;2022-10-30T04:09:51;101639.03;;;17.03;100.00
21111;BME280;10713;51.912;4.494;2022-10-30T04:12:16;101626.28;;;16.93;100.00
21111;BME280;10713;51.912;4.494;2022-10-30T04:14:41;101635.47;;;16.87;100.00
21111;BME280;10713;51.912;4.494;2022-10-30T04:17:07;101647.16;;;16.84;100.00
21111;BME280;10713;51.912;4.494;2022-10-30T04:19:32;101641.81;;;16.84;100.00
21111;BME280;10713;51.912;4.494;2022-10-30T04:21:57;101637.66;;;16.79;100.00
21111;BME280;10713;51.912;4.494;2022-10-30T04:24:23;101631.59;;;16.75;100.00
21111;BME280;10713;51.912;4.494;2022-10-30T04:26:48;101639.16;;;16.84;100.00
21111;BME280;10713;51.912;4.494;2022-10-30T04:29:14;101633.81;;;16.84;100.00
21111;BME280;10713;51.912;4.494;2022-10-30T04:31:39;101631.41;;;16.80;100.00
21111;BME280;10713;51.912;4.494;2022-10-30T04:34:04;101629.91;;;16.92;100.00
21111;BME280;10713;51.912;4.494;2022-10-30T04:36:30;101616.91;;;16.85;100.00
21111;BME280;10713;51.912;4.494;2022-10-30T04:38:58;101617.03;;;16.82;100.00
21111;BME280;10713;51.912;4.494;2022-10-30T04:41:24;101610.34;;;16.74;100.00
21111;BME280;10713;51.912;4.494;2022-10-30T04:43:50;101603.88;;;16.62;100.00
21111;BME280;10713;51.912;4.494;2022-10-30T04:46:15;101605.34;;;16.67;100.00
21111;BME280;10713;51.912;4.494;2022-10-30T04:48:41;101606.06;;;16.54;100.00
21111;BME280;10713;51.912;4.494;2022-10-30T04:51:07;101605.84;;;16.41;100.00
21111;BME280;10713;51.912;4.494;2022-10-30T04:53:33;101609.75;;;16.34;100.00
21111;BME280;10713;51.912;4.494;2022-10-30T04:55:58;101613.00;;;16.23;100.00
21111;BME280;10713;51.912;4.494;2022-10-30T04:58:24;101604.44;;;16.16;100.00
21111;BME280;10713;51.912;4.494;2022-10-30T05:00:49;101604.59;;;16.13;100.00
21111;BME280;10713;51.912;4.494;2022-10-30T05:03:18;101615.03;;;16.18;100.00
21111;BME280;10713;51.912;4.494;2022-10-30T05:05:45;101616.41;;;16.25;100.00
21111;BME280;10713;51.912;4.494;2022-10-30T05:08:11;101617.75;;;16.34;100.00
21111;BME280;10713;51.912;4.494;2022-10-30T05:10:39;101631.53;;;16.42;100.00
21111;BME280;10713;51.912;4.494;2022-10-30T05:13:05;101631.00;;;16.35;100.00
21111;BME280;10713;51.912;4.494;2022-10-30T05:15:30;101626.22;;;16.25;100.00
21111;BME280;10713;51.912;4.494;2022-10-30T05:17:56;101617.91;;;16.13;100.00
21111;BME280;10713;51.912;4.494;2022-10-30T05:20:21;101621.34;;;16.15;100.00
21111;BME280;10713;51.912;4.494;2022-10-30T05:22:54;101616.34;;;16.27;100.00
21111;BME280;10713;51.912;4.494;2022-10-30T05:25:19;101616.03;;;16.15;100.00
21111;BME280;10713;51.912;4.494;2022-10-30T05:27:45;101620.56;;;16.31;100.00
21111;BME280;10713;51.912;4.494;2022-10-30T05:30:10;101623.97;;;16.34;100.00
21111;BME280;10713;51.912;4.494;2022-10-30T05:32:36;101624.56;;;16.39;100.00
21111;BME280;10713;51.912;4.494;2022-10-30T05:35:01;101620.66;;;16.47;100.00
21111;BME280;10713;51.912;4.494;2022-10-30T05:37:26;101625.63;;;16.37;100.00
21111;BME280;10713;51.912;4.494;2022-10-30T05:39:52;101621.31;;;16.34;100.00
21111;BME280;10713;51.912;4.494;2022-10-30T05:42:17;101619.50;;;16.35;100.00
21111;BME280;10713;51.912;4.494;2022-10-30T05:44:43;101624.34;;;16.27;100.00
21111;BME280;10713;51.912;4.494;2022-10-30T05:47:10;101633.91;;;16.31;100.00
21111;BME280;10713;51.912;4.494;2022-10-30T05:49:35;101635.78;;;16.11;100.00
21111;BME280;10713;51.912;4.494;2022-10-30T05:52:00;101642.03;;;16.10;100.00
21111;BME280;10713;51.912;4.494;2022-10-30T05:54:26;101647.13;;;16.15;100.00
21111;BME280;10713;51.912;4.494;2022-10-30T05:56:51;101636.63;;;16.12;100.00
21111;BME280;10713;51.912;4.494;2022-10-30T05:59:16;101648.75;;;16.00;100.00
21111;BME280;10713;51.912;4.494;2022-10-30T06:01:42;101655.41;;;15.91;100.00
21111;BME280;10713;51.912;4.494;2022-10-30T06:04:07;101646.09;;;16.00;100.00
21111;BME280;10713;51.912;4.494;2022-10-30T06:06:32;101646.66;;;16.07;100.00
21111;BME280;10713;51.912;4.494;2022-10-30T06:08:58;101649.31;;;16.07;100.00
21111;BME280;10713;51.912;4.494;2022-10-30T06:11:23;101642.66;;;16.15;100.00
21111;BME280;10713;51.912;4.494;2022-10-30T06:13:48;101633.97;;;16.12;100.00
21111;BME280;10713;51.912;4.494;2022-10-30T06:16:14;101645.34;;;16.15;100.00
21111;BME280;10713;51.912;4.494;2022-10-30T06:18:39;101639.69;;;16.21;100.00
21111;BME280;10713;51.912;4.494;2022-10-30T06:21:05;101638.03;;;16.19;100.00
21111;BME280;10713;51.912;4.494;2022-10-30T06:23:30;101640.16;;;16.12;100.00
21111;BME280;10713;51.912;4.494;2022-10-30T06:25:55;101642.44;;;16.03;100.00
21111;BME280;10713;51.912;4.494;2022-10-30T06:28:21;101650.16;;;16.07;100.00
21111;BME280;10713;51.912;4.494;2022-10-30T06:30:46;101649.00;;;16.13;100.00
21111;BME280;10713;51.912;4.494;2022-10-30T06:33:12;101649.81;;;16.15;100.00
21111;BME280;10713;51.912;4.494;2022-10-30T06:35:37;101648.94;;;16.14;100.00
21111;BME280;10713;51.912;4.494;2022-10-30T06:38:03;101640.31;;;16.09;100.00
21111;BME280;10713;51.912;4.494;2022-10-30T06:40:29;101644.22;;;16.02;100.00
21111;BME280;10713;51.912;4.494;2022-10-30T06:42:55;101647.75;;;16.03;100.00
21111;BME280;10713;51.912;4.494;2022-10-30T06:45:21;101635.19;;;16.05;100.00
21111;BME280;10713;51.912;4.494;2022-10-30T06:47:47;101628.53;;;15.96;100.00
21111;BME280;10713;51.912;4.494;2022-10-30T06:50:16;101633.50;;;16.04;100.00
21111;BME280;10713;51.912;4.494;2022-10-30T06:52:41;101632.16;;;15.95;100.00
21111;BME280;10713;51.912;4.494;2022-10-30T06:55:08;101638.03;;;16.02;100.00
21111;BME280;10713;51.912;4.494;2022-10-30T06:57:33;101626.38;;;16.21;100.00
21111;BME280;10713;51.912;4.494;2022-10-30T06:59:59;101619.41;;;16.36;100.00
21111;BME280;10713;51.912;4.494;2022-10-30T07:02:24;101624.34;;;16.44;100.00
21111;BME280;10713;51.912;4.494;2022-10-30T07:04:49;101619.16;;;16.58;100.00
21111;BME280;10713;51.912;4.494;2022-10-30T07:07:15;101619.28;;;16.90;100.00
21111;BME280;10713;51.912;4.494;2022-10-30T07:09:41;101624.53;;;17.25;100.00
21111;BME280;10713;51.912;4.494;2022-10-30T07:12:07;101622.56;;;17.44;100.00
21111;BME280;10713;51.912;4.494;2022-10-30T07:14:32;101618.69;;;17.50;100.00
21111;BME280;10713;51.912;4.494;2022-10-30T07:16:58;101614.91;;;17.54;100.00
21111;BME280;10713;51.912;4.494;2022-10-30T07:19:23;101609.06;;;17.95;100.00
21111;BME280;10713;51.912;4.494;2022-10-30T07:21:49;101612.09;;;18.49;100.00
21111;BME280;10713;51.912;4.494;2022-10-30T07:24:14;101608.31;;;18.82;100.00
21111;BME280;10713;51.912;4.494;2022-10-30T07:26:40;101604.56;;;18.70;100.00
21111;BME280;10713;51.912;4.494;2022-10-30T07:29:05;101613.75;;;18.66;100.00
21111;BME280;10713;51.912;4.494;2022-10-30T07:31:31;101613.38;;;18.42;100.00
21111;BME280;10713;51.912;4.494;2022-10-30T07:33:57;101616.22;;;18.24;100.00
21111;BME280;10713;51.912;4.494;2022-10-30T07:36:22;101614.69;;;18.20;100.00
21111;BME280;10713;51.912;4.494;2022-10-30T07:38:48;101614.06;;;18.45;100.00
21111;BME280;10713;51.912;4.494;2022-10-30T07:41:14;101626.84;;;19.13;100.00
21111;BME280;10713;51.912;4.494;2022-10-30T07:43:39;101622.59;;;19.94;100.00
21111;BME280;10713;51.912;4.494;2022-10-30T07:46:05;101613.72;;;20.33;100.00
21111;BME280;10713;51.912;4.494;2022-10-30T07:48:30;101611.00;;;20.73;100.00
21111;BME280;10713;51.912;4.494;2022-10-30T07:50:55;101598.09;;;21.04;100.00
21111;BME280;10713;51.912;4.494;2022-10-30T07:53:21;101603.19;;;21.20;100.00
21111;BME280;10713;51.912;4.494;2022-10-30T07:55:46;101598.38;;;21.25;100.00
21111;BME280;10713;51.912;4.494;2022-10-30T07:58:12;101599.16;;;21.01;100.00
21111;BME280;10713;51.912;4.494;2022-10-30T08:00:37;101604.53;;;20.88;100.00
21111;BME280;10713;51.912;4.494;2022-10-30T08:03:02;101613.53;;;21.13;100.00
21111;BME280;10713;51.912;4.494;2022-10-30T08:05:28;101611.81;;;21.38;100.00
21111;BME280;10713;51.912;4.494;2022-10-30T08:07:53;101612.34;;;21.67;100.00
21111;BME280;10713;51.912;4.494;2022-10-30T08:10:19;101611.06;;;22.08;100.00
21111;BME280;10713;51.912;4.494;2022-10-30T08:12:44;101608.63;;;22.04;100.00
21111;BME280;10713;51.912;4.494;2022-10-30T08:15:11;101611.44;;;22.27;100.00
21111;BME280;10713;51.912;4.494;2022-10-30T08:17:44;101610.56;;;22.84;100.00
21111;BME280;10713;51.912;4.494;2022-10-30T08:20:12;101617.06;;;23.38;100.00
21111;BME280;10713;51.912;4.494;2022-10-30T08:22:52;101617.22;;;24.12;100.00
21111;BME280;10713;51.912;4.494;2022-10-30T08:25:22;101603.34;;;24.70;100.00
21111;BME280;10713;51.912;4.494;2022-10-30T08:28:06;101608.59;;;25.02;100.00
21111;BME280;10713;51.912;4.494;2022-10-30T08:30:33;101612.09;;;25.14;100.00
21111;BME280;10713;51.912;4.494;2022-10-30T08:33:01;101608.91;;;25.09;100.00
21111;BME280;10713;51.912;4.494;2022-10-30T08:35:27;101601.16;;;24.94;100.00
21111;BME280;10713;51.912;4.494;2022-10-30T08:37:56;101598.81;;;24.80;100.00
21111;BME280;10713;51.912;4.494;2022-10-30T08:40:23;101594.91;;;24.63;100.00
21111;BME280;10713;51.912;4.494;2022-10-30T08:42:52;101600.28;;;24.42;100.00
21111;BME280;10713;51.912;4.494;2022-10-30T08:45:18;101599.81;;;24.16;100.00
21111;BME280;10713;51.912;4.494;2022-10-30T08:47:44;101604.28;;;23.74;100.00
21111;BME280;10713;51.912;4.494;2022-10-30T08:50:09;101607.16;;;23.38;100.00
21111;BME280;10713;51.912;4.494;2022-10-30T08:52:34;101613.41;;;23.16;100.00
21111;BME280;10713;51.912;4.494;2022-10-30T08:55:00;101599.34;;;23.13;100.00
21111;BME280;10713;51.912;4.494;2022-10-30T08:57:26;101597.59;;;23.34;100.00
21111;BME280;10713;51.912;4.494;2022-10-30T08:59:51;101605.75;;;23.67;100.00
21111;BME280;10713;51.912;4.494;2022-10-30T09:02:16;101610.13;;;24.11;100.00
21111;BME280;10713;51.912;4.494;2022-10-30T09:04:42;101605.88;;;24.71;100.00
21111;BME280;10713;51.912;4.494;2022-10-30T09:07:07;101610.91;;;25.07;100.00
21111;BME280;10713;51.912;4.494;2022-10-30T09:09:32;101612.56;;;25.29;100.00
21111;BME280;10713;51.912;4.494;2022-10-30T09:11:58;101618.41;;;25.34;100.00
21111;BME280;10713;51.912;4.494;2022-10-30T09:14:23;101610.53;;;25.61;100.00
21111;BME280;10713;51.912;4.494;2022-10-30T09:16:48;101609.53;;;25.82;100.00
21111;BME280;10713;51.912;4.494;2022-10-30T09:19:14;101606.56;;;26.24;100.00
21111;BME280;10713;51.912;4.494;2022-10-30T09:21:39;101602.78;;;26.83;100.00
21111;BME280;10713;51.912;4.494;2022-10-30T09:24:05;101608.84;;;27.32;100.00
21111;BME280;10713;51.912;4.494;2022-10-30T09:26:30;101606.53;;;27.37;100.00
21111;BME280;10713;51.912;4.494;2022-10-30T09:28:56;101604.44;;;27.59;100.00
21111;BME280;10713;51.912;4.494;2022-10-30T09:31:21;101603.59;;;27.76;100.00
21111;BME280;10713;51.912;4.494;2022-10-30T09:33:47;101598.81;;;27.88;100.00
21111;BME280;10713;51.912;4.494;2022-10-30T09:36:13;101599.00;;;28.13;100.00
21111;BME280;10713;51.912;4.494;2022-10-30T09:38:38;101597.03;;;28.41;100.00
21111;BME280;10713;51.912;4.494;2022-10-30T09:54:58;101598.94;;;29.01;86.99
21111;BME280;10713;51.912;4.494;2022-10-30T09:57:41;101597.25;;;29.00;87.14
21111;BME280;10713;51.912;4.494;2022-10-30T10:00:14;101588.00;;;28.84;96.07
21111;BME280;10713;51.912;4.494;2022-10-30T10:05:16;101584.28;;;28.85;100.00
21111;BME280;10713;51.912;4.494;2022-10-30T10:07:53;101579.84;;;29.10;99.33
21111;BME280;10713;51.912;4.494;2022-10-30T10:10:35;101588.03;;;28.92;100.00
21111;BME280;10713;51.912;4.494;2022-10-30T10:13:03;101592.44;;;28.41;100.00
21111;BME280;10713;51.912;4.494;2022-10-30T10:15:39;101597.97;;;27.88;100.00
21111;BME280;10713;51.912;4.494;2022-10-30T10:18:15;101597.28;;;27.58;100.00
21111;BME280;10713;51.912;4.494;2022-10-30T10:20:46;101596.97;;;27.06;100.00
21111;BME280;10713;51.912;4.494;2022-10-30T10:25:51;101589.91;;;26.28;100.00
21111;BME280;10713;51.912;4.494;2022-10-30T10:49:41;101567.81;;;25.46;100.00
21111;BME280;10713;51.912;4.494;2022-10-30T10:52:20;101560.69;;;25.54;100.00
21111;BME280;10713;51.912;4.494;2022-10-30T10:54:54;101559.00;;;25.53;100.00
21111;BME280;10713;51.912;4.494;2022-10-30T10:57:36;101563.28;;;25.66;100.00
21111;BME280;10713;51.912;4.494;2022-10-30T11:00:03;101566.78;;;25.37;100.00
21111;BME280;10713;51.912;4.494;2022-10-30T11:02:40;101567.25;;;25.11;100.00
21111;BME280;10713;51.912;4.494;2022-10-30T11:08:00;101569.47;;;24.87;100.00
21111;BME280;10713;51.912;4.494;2022-10-30T11:10:28;101560.56;;;24.75;100.00
21111;BME280;10713;51.912;4.494;2022-10-30T11:12:53;101563.41;;;24.73;100.00
21111;BME280;10713;51.912;4.494;2022-10-30T11:15:39;101567.44;;;24.79;100.00
21111;BME280;10713;51.912;4.494;2022-10-30T11:18:08;101558.78;;;24.85;100.00
21111;BME280;10713;51.912;4.494;2022-10-30T11:21:10;101551.94;;;24.81;100.00
21111;BME280;10713;51.912;4.494;2022-10-30T11:23:39;101561.19;;;24.88;100.00
21111;BME280;10713;51.912;4.494;2022-10-30T11:31:28;101545.25;;;24.76;100.00
21111;BME280;10713;51.912;4.494;2022-10-30T11:34:28;101549.28;;;24.60;100.00
21111;BME280;10713;51.912;4.494;2022-10-30T11:36:54;101543.41;;;24.55;100.00
21111;BME280;10713;51.912;4.494;2022-10-30T11:39:22;101545.81;;;24.48;100.00
21111;BME280;10713;51.912;4.494;2022-10-30T11:44:29;101537.28;;;24.32;100.00
21111;BME280;10713;51.912;4.494;2022-10-30T11:46:56;101539.16;;;24.32;100.00
21111;BME280;10713;51.912;4.494;2022-10-30T11:49:28;101538.69;;;24.26;100.00
21111;BME280;10713;51.912;4.494;2022-10-30T11:51:55;101536.13;;;24.25;100.00
21111;BME280;10713;51.912;4.494;2022-10-30T11:54:21;101544.59;;;24.20;100.00
21111;BME280;10713;51.912;4.494;2022-10-30T11:56:48;101547.91;;;24.24;100.00
21111;BME280;10713;51.912;4.494;2022-10-30T11:59:18;101556.97;;;24.23;100.00
21111;BME280;10713;51.912;4.494;2022-10-30T12:02:21;101545.56;;;24.10;100.00
21111;BME280;10713;51.912;4.494;2022-10-30T12:04:48;101557.31;;;24.09;100.00
21111;BME280;10713;51.912;4.494;2022-10-30T12:07:23;101552.81;;;23.98;100.00
21111;BME280;10713;51.912;4.494;2022-10-30T12:09:50;101556.75;;;23.73;100.00
21111;BME280;10713;51.912;4.494;2022-10-30T12:12:34;101552.25;;;23.51;100.00
21111;BME280;10713;51.912;4.494;2022-10-30T12:17:36;101559.00;;;23.45;100.00
21111;BME280;10713;51.912;4.494;2022-10-30T12:20:03;101559.16;;;23.32;100.00
21111;BME280;10713;51.912;4.494;2022-10-30T12:22:31;101556.47;;;23.32;100.00
21111;BME280;10713;51.912;4.494;2022-10-30T12:24:59;101557.44;;;23.31;100.00
21111;BME280;10713;51.912;4.494;2022-10-30T12:27:26;101558.69;;;23.27;100.00
21111;BME280;10713;51.912;4.494;2022-10-30T12:30:09;101557.06;;;23.36;100.00
21111;BME280;10713;51.912;4.494;2022-10-30T12:36:11;101551.44;;;23.39;100.00
21111;BME280;10713;51.912;4.494;2022-10-30T12:41:11;101545.81;;;23.31;100.00
21111;BME280;10713;51.912;4.494;2022-10-30T12:43:41;101533.41;;;23.39;100.00
21111;BME280;10713;51.912;4.494;2022-10-30T12:46:15;101534.19;;;23.30;100.00
21111;BME280;10713;51.912;4.494;2022-10-30T12:48:56;101527.22;;;23.28;100.00
21111;BME280;10713;51.912;4.494;2022-10-30T12:56:37;101539.28;;;23.45;100.00
21111;BME280;10713;51.912;4.494;2022-10-30T12:59:23;101539.88;;;23.48;100.00
21111;BME280;10713;51.912;4.494;2022-10-30T13:02:20;101537.88;;;23.61;100.00
21111;BME280;10713;51.912;4.494;2022-10-30T13:04:54;101535.94;;;23.64;100.00
21111;BME280;10713;51.912;4.494;2022-10-30T13:07:28;101539.66;;;23.40;100.00
21111;BME280;10713;51.912;4.494;2022-10-30T13:10:21;101534.03;;;23.32;100.00
21111;BME280;10713;51.912;4.494;2022-10-30T13:12:53;101519.41;;;23.13;100.00
21111;BME280;10713;51.912;4.494;2022-10-30T13:15:26;101526.16;;;23.08;100.00
21111;BME280;10713;51.912;4.494;2022-10-30T13:17:56;101531.63;;;23.06;100.00
21111;BME280;10713;51.912;4.494;2022-10-30T13:20:22;101534.56;;;23.14;100.00
21111;BME280;10713;51.912;4.494;2022-10-30T13:22:56;101520.50;;;23.22;100.00
21111;BME280;10713;51.912;4.494;2022-10-30T13:28:21;101510.50;;;23.02;100.00
21111;BME280;10713;51.912;4.494;2022-10-30T13:36:51;101522.84;;;22.82;100.00
21111;BME280;10713;51.912;4.494;2022-10-30T13:39:39;101526.25;;;23.06;100.00
21111;BME280;10713;51.912;4.494;2022-10-30T13:47:48;101533.00;;;23.55;100.00
21111;BME280;10713;51.912;4.494;2022-10-30T13:52:56;101559.38;;;23.41;100.00
21111;BME280;10713;51.912;4.494;2022-10-30T13:55:26;101568.69;;;23.36;100.00
21111;BME280;10713;51.912;4.494;2022-10-30T13:58:02;101570.06;;;23.20;100.00
21111;BME280;10713;51.912;4.494;2022-10-30T14:00:53;101575.59;;;22.96;100.00
21111;BME280;10713;51.912;4.494;2022-10-30T14:11:47;101604.31;;;22.26;100.00
21111;BME280;10713;51.912;4.494;2022-10-30T14:22:32;101580.63;;;21.35;100.00
21111;BME280;10713;51.912;4.494;2022-10-30T14:24:59;101596.53;;;21.25;100.00
21111;BME280;10713;51.912;4.494;2022-10-30T14:27:32;101596.09;;;21.31;100.00
21111;BME280;10713;51.912;4.494;2022-10-30T14:29:58;101599.97;;;21.27;100.00
21111;BME280;10713;51.912;4.494;2022-10-30T14:39:45;101592.59;;;21.18;100.00
21111;BME280;10713;51.912;4.494;2022-10-30T14:42:27;101589.78;;;21.20;100.00
21111;BME280;10713;51.912;4.494;2022-10-30T14:58:42;101648.75;;;20.83;100.00
21111;BME280;10713;51.912;4.494;2022-10-30T15:01:18;101657.78;;;20.82;100.00
21111;BME280;10713;51.912;4.494;2022-10-30T15:04:11;101664.44;;;20.63;100.00
21111;BME280;10713;51.912;4.494;2022-10-30T15:09:21;101651.38;;;20.44;100.00
21111;BME280;10713;51.912;4.494;2022-10-30T15:14:40;101671.56;;;20.23;100.00
21111;BME280;10713;51.912;4.494;2022-10-30T15:17:27;101685.81;;;20.11;100.00
21111;BME280;10713;51.912;4.494;2022-10-30T15:19:53;101683.75;;;20.01;100.00
21111;BME280;10713;51.912;4.494;2022-10-30T15:22:20;101681.63;;;20.07;100.00